Time;durP1;ratioP1;P1;durP2;ratioP2;P2;SDS_P1;SDS_P2;PMS_P1;PMS_P2;Temp;Humidity;BMP_temperature;BMP_pressure;BME280_temperature;BME280_humidity;BME280_pressure;Samples;Min_cycle;Max_cycle;Signal;HPM_P1;HPM_P2
2021/12/09 00:01:12;;;;;;;;;;;;;;;1.96;90.56;95147.47;4994632;28;20021;-75
2021/12/09 00:03:40;;;;;;;;;;;;;;;1.96;90.49;95152.63;4994725;28;19965;-75
2021/12/09 00:06:07;;;;;;;;;;;;;;;1.98;90.67;95153.22;4994567;28;20127;-76
2021/12/09 00:08:33;;;;;;;;;;;;;;;1.98;90.58;95160.19;4977005;28;20327;-75
2021/12/09 00:11:03;;;;;;;;;;;;;;;1.96;90.55;95157.00;4977053;28;19968;-75
2021/12/09 00:13:30;;;;;;;;;;;;;;;1.94;90.43;95169.34;4994106;28;19961;-75
2021/12/09 00:15:58;;;;;;;;;;;;;;;1.91;90.20;95160.19;4994345;28;19966;-76
2021/12/09 00:18:27;;;;;;;;;;;;;;;1.90;90.23;95160.38;4994241;28;20342;-75
2021/12/09 00:20:53;;;;;;;;;;;;;;;1.87;90.07;95158.97;4976809;28;19957;-76
2021/12/09 00:23:22;;;;;;;;;;;;;;;1.87;90.04;95155.56;4994341;28;20445;-75
2021/12/09 00:25:48;;;;;;;;;;;;;;;1.85;89.94;95162.72;4994433;28;19960;-75
2021/12/09 00:28:14;;;;;;;;;;;;;;;1.83;90.04;95152.59;4994080;28;20333;-75
2021/12/09 00:30:40;;;;;;;;;;;;;;;1.81;90.21;95157.16;4994447;28;19967;-75
2021/12/09 00:33:07;;;;;;;;;;;;;;;1.80;90.03;95153.78;4994072;28;19973;-77
2021/12/09 00:35:57;;;;;;;;;;;;;;;1.80;90.15;95152.97;4994192;28;19974;-77
2021/12/09 00:41:19;;;;;;;;;;;;;;;1.77;90.02;95158.56;4977345;28;19973;-77
2021/12/09 00:43:44;;;;;;;;;;;;;;;1.76;89.99;95156.94;4994166;28;19967;-77
2021/12/09 00:46:11;;;;;;;;;;;;;;;1.76;90.06;95157.72;4993010;28;20412;-77
2021/12/09 00:48:37;;;;;;;;;;;;;;;1.74;89.99;95154.56;4994147;28;20417;-77
2021/12/09 00:51:04;;;;;;;;;;;;;;;1.76;90.16;95156.94;4993937;28;19984;-77
2021/12/09 00:53:30;;;;;;;;;;;;;;;1.75;90.25;95156.16;4994160;28;19968;-76
2021/12/09 00:55:56;;;;;;;;;;;;;;;1.76;90.25;95162.09;4996978;28;19951;-77
2021/12/09 00:58:22;;;;;;;;;;;;;;;1.76;90.31;95164.69;4997937;28;19959;-76
2021/12/09 01:00:48;;;;;;;;;;;;;;;1.76;90.34;95169.88;4998090;28;20413;-77
2021/12/09 01:03:15;;;;;;;;;;;;;;;1.76;90.29;95168.06;4997717;28;20407;-76
2021/12/09 01:05:43;;;;;;;;;;;;;;;1.77;90.45;95169.69;4997896;28;19953;-76
2021/12/09 01:08:10;;;;;;;;;;;;;;;1.77;90.47;95171.47;4997513;28;19978;-76
2021/12/09 01:10:39;;;;;;;;;;;;;;;1.79;90.50;95172.88;4998137;28;19969;-76
2021/12/09 01:13:05;;;;;;;;;;;;;;;1.79;90.54;95167.69;4997431;28;19968;-76
2021/12/09 01:15:32;;;;;;;;;;;;;;;1.79;90.68;95170.28;4997740;28;19960;-77
2021/12/09 01:17:58;;;;;;;;;;;;;;;1.80;90.70;95173.66;4997569;28;19981;-76
2021/12/09 01:20:25;;;;;;;;;;;;;;;1.79;90.51;95172.88;4997157;28;20299;-74
2021/12/09 01:22:53;;;;;;;;;;;;;;;1.80;90.52;95174.44;4997619;28;20421;-76
2021/12/09 01:25:23;;;;;;;;;;;;;;;1.80;90.56;95177.03;4997386;28;19955;-76
2021/12/09 01:27:52;;;;;;;;;;;;;;;1.80;90.53;95178.81;4997531;28;19954;-76
2021/12/09 01:30:21;;;;;;;;;;;;;;;1.79;90.58;95179.81;4986441;28;19958;-74
2021/12/09 01:32:50;;;;;;;;;;;;;;;1.78;90.77;95181.59;4997128;28;20432;-76
2021/12/09 01:35:21;;;;;;;;;;;;;;;1.78;90.84;95185.97;4997779;28;19956;-76
2021/12/09 01:37:47;;;;;;;;;;;;;;;1.77;90.64;95185.19;4997567;28;19954;-75
2021/12/09 01:40:14;;;;;;;;;;;;;;;1.78;90.90;95191.16;4996523;28;19971;-76
2021/12/09 01:42:40;;;;;;;;;;;;;;;1.77;90.94;95187.78;4997058;28;19958;-75
2021/12/09 01:45:06;;;;;;;;;;;;;;;1.77;90.76;95186.97;4996930;28;20344;-76
2021/12/09 01:47:32;;;;;;;;;;;;;;;1.77;90.85;95192.94;4996918;28;19964;-75
2021/12/09 01:49:58;;;;;;;;;;;;;;;1.77;91.04;95190.34;4997148;28;20408;-76
2021/12/09 01:52:27;;;;;;;;;;;;;;;1.76;90.98;95193.91;4996516;28;19969;-76
2021/12/09 01:54:53;;;;;;;;;;;;;;;1.77;91.09;95195.53;4996880;28;20407;-75
2021/12/09 01:57:19;;;;;;;;;;;;;;;1.78;90.98;95197.09;4996721;28;20035;-76
2021/12/09 01:59:46;;;;;;;;;;;;;;;1.78;91.25;95194.50;4996875;28;20052;-75
2021/12/09 02:02:12;;;;;;;;;;;;;;;1.79;91.18;95198.72;4996435;28;19956;-78
2021/12/09 02:04:41;;;;;;;;;;;;;;;1.80;91.16;95194.34;4997125;28;19967;-76
2021/12/09 02:07:06;;;;;;;;;;;;;;;1.81;91.40;95195.94;4995239;28;19956;-76
2021/12/09 02:09:32;;;;;;;;;;;;;;;1.80;91.39;95192.53;4996321;28;20327;-75
2021/12/09 02:11:58;;;;;;;;;;;;;;;1.83;91.19;95204.31;4996197;28;19955;-75
2021/12/09 02:14:24;;;;;;;;;;;;;;;1.83;91.24;95210.25;4996307;28;19961;-75
2021/12/09 02:16:50;;;;;;;;;;;;;;;1.84;91.60;95221.38;4996305;28;20399;-75
2021/12/09 02:19:16;;;;;;;;;;;;;;;1.83;91.53;95224.97;4996948;28;19956;-75
2021/12/09 02:21:42;;;;;;;;;;;;;;;1.86;91.55;95236.72;4996176;28;19993;-75
2021/12/09 02:24:11;;;;;;;;;;;;;;;1.83;91.35;95238.69;4996210;28;19955;-76
2021/12/09 02:26:39;;;;;;;;;;;;;;;1.83;91.58;95248.25;4996269;28;19958;-76
2021/12/09 02:29:06;;;;;;;;;;;;;;;1.85;91.58;95242.84;4996359;28;19957;-76
2021/12/09 02:31:33;;;;;;;;;;;;;;;1.86;91.63;95254.81;4996228;28;19957;-76
2021/12/09 02:33:59;;;;;;;;;;;;;;;1.84;91.52;95247.25;4996636;28;19979;-76
2021/12/09 02:36:24;;;;;;;;;;;;;;;1.85;91.45;95258.38;4978746;28;20336;-76
2021/12/09 02:38:51;;;;;;;;;;;;;;;1.85;91.50;95256.59;4995986;28;19953;-76
2021/12/09 02:41:19;;;;;;;;;;;;;;;1.83;91.42;95256.78;4995365;28;19959;-76
2021/12/09 02:43:46;;;;;;;;;;;;;;;1.85;91.33;95263.53;4995413;28;19946;-75
2021/12/09 02:46:12;;;;;;;;;;;;;;;1.86;91.52;95267.72;4995738;28;19955;-76
2021/12/09 02:48:38;;;;;;;;;;;;;;;1.87;91.50;95258.97;4996044;28;20432;-75
2021/12/09 02:51:06;;;;;;;;;;;;;;;1.87;91.49;95261.56;4995852;28;19960;-75
2021/12/09 02:53:33;;;;;;;;;;;;;;;1.86;91.57;95263.34;4996246;28;19979;-75
2021/12/09 02:55:59;;;;;;;;;;;;;;;1.86;91.91;95262.56;4995758;28;20318;-76
2021/12/09 02:58:25;;;;;;;;;;;;;;;1.86;91.89;95260.78;4995610;28;19951;-76
2021/12/09 03:00:59;;;;;;;;;;;;;;;1.88;91.85;95255.41;4995489;28;19959;-76
2021/12/09 03:03:25;;;;;;;;;;;;;;;1.89;91.92;95262.16;4995794;28;19959;-77
2021/12/09 03:05:53;;;;;;;;;;;;;;;1.88;91.78;95261.38;4995425;28;19951;-76
2021/12/09 03:08:24;;;;;;;;;;;;;;;1.89;91.78;95260.41;4995101;28;20423;-76
2021/12/09 03:10:50;;;;;;;;;;;;;;;1.89;91.81;95267.34;4995376;28;19951;-76
2021/12/09 03:13:17;;;;;;;;;;;;;;;1.88;91.97;95258.78;4977903;28;20014;-75
2021/12/09 03:15:43;;;;;;;;;;;;;;;1.87;91.96;95257.22;4995358;28;19956;-75
2021/12/09 03:18:09;;;;;;;;;;;;;;;1.87;92.13;95252.03;4995248;28;20029;-76
2021/12/09 03:20:35;;;;;;;;;;;;;;;1.85;91.84;95243.69;4995243;28;19982;-75
2021/12/09 03:23:01;;;;;;;;;;;;;;;1.87;91.72;95251.22;4995180;28;19961;-74
2021/12/09 03:25:27;;;;;;;;;;;;;;;1.85;91.59;95253.19;4995130;28;19958;-74
2021/12/09 03:27:53;;;;;;;;;;;;;;;1.81;91.76;95250.22;4994955;28;20096;-74
2021/12/09 03:30:19;;;;;;;;;;;;;;;1.76;91.61;95249.97;4961497;28;19989;-75
2021/12/09 03:32:48;;;;;;;;;;;;;;;1.73;92.08;95253.75;4978585;28;19968;-75
2021/12/09 03:35:14;;;;;;;;;;;;;;;1.71;92.44;95253.16;4995251;28;19954;-76
2021/12/09 03:37:40;;;;;;;;;;;;;;;1.70;92.77;95251.56;4994825;28;19960;-75
2021/12/09 03:40:07;;;;;;;;;;;;;;;1.71;92.83;95257.53;4994870;28;19957;-75
2021/12/09 03:42:33;;;;;;;;;;;;;;;1.73;92.82;95264.09;4994682;28;20327;-75
2021/12/09 03:45:00;;;;;;;;;;;;;;;1.73;92.65;95253.75;4994326;28;19954;-75
2021/12/09 03:47:27;;;;;;;;;;;;;;;1.77;92.59;95259.34;4994483;28;19974;-74
2021/12/09 03:49:53;;;;;;;;;;;;;;;1.79;92.58;95260.75;4995034;28;19959;-74
2021/12/09 03:52:20;;;;;;;;;;;;;;;1.79;92.60;95260.75;4994524;28;20337;-75
2021/12/09 03:54:46;;;;;;;;;;;;;;;1.80;92.54;95261.53;4994490;28;19961;-75
2021/12/09 03:57:12;;;;;;;;;;;;;;;1.81;92.31;95263.16;4993831;28;19953;-75
2021/12/09 03:59:39;;;;;;;;;;;;;;;1.82;92.36;95268.09;4994431;28;19983;-75
2021/12/09 04:02:06;;;;;;;;;;;;;;;1.81;92.45;95269.09;4994594;28;20300;-75
2021/12/09 04:04:32;;;;;;;;;;;;;;;1.83;92.13;95266.34;4994501;28;20026;-75
2021/12/09 04:06:58;;;;;;;;;;;;;;;1.84;92.11;95275.66;4994532;28;19956;-76
2021/12/09 04:09:25;;;;;;;;;;;;;;;1.83;92.07;95272.28;4994478;28;19961;-76
2021/12/09 04:11:51;;;;;;;;;;;;;;;1.84;92.25;95278.25;4993774;28;19946;-77
2021/12/09 04:14:19;;;;;;;;;;;;;;;1.86;92.35;95278.06;4994649;28;19977;-74
2021/12/09 04:16:46;;;;;;;;;;;;;;;1.84;92.18;95278.25;4994159;28;19952;-75
2021/12/09 04:19:12;;;;;;;;;;;;;;;1.83;92.24;95272.28;4994304;28;20331;-75
2021/12/09 04:21:38;;;;;;;;;;;;;;;1.83;92.40;95276.69;4994029;28;19978;-75
2021/12/09 04:24:07;;;;;;;;;;;;;;;1.82;92.38;95275.84;4994017;28;19950;-75
2021/12/09 04:26:34;;;;;;;;;;;;;;;1.80;92.28;95272.66;4994071;28;19967;-75
2021/12/09 04:29:00;;;;;;;;;;;;;;;1.83;92.29;95269.72;4993843;28;19955;-75
2021/12/09 04:31:27;;;;;;;;;;;;;;;1.83;92.12;95271.50;4993883;28;19958;-75
2021/12/09 04:33:52;;;;;;;;;;;;;;;1.79;92.18;95278.84;4994074;28;19967;-76
2021/12/09 04:36:21;;;;;;;;;;;;;;;1.78;92.38;95290.16;4994137;28;20041;-75
2021/12/09 04:38:48;;;;;;;;;;;;;;;1.77;92.02;95291.16;4993974;28;19956;-75
2021/12/09 04:41:14;;;;;;;;;;;;;;;1.76;91.86;95299.88;4994307;28;20295;-75
2021/12/09 04:43:42;;;;;;;;;;;;;;;1.75;91.67;95292.34;4994080;28;20316;-75
2021/12/09 04:46:09;;;;;;;;;;;;;;;1.75;91.40;95302.69;4993919;28;20395;-75
2021/12/09 04:48:35;;;;;;;;;;;;;;;1.75;91.42;95306.06;4994272;28;19965;-75
2021/12/09 04:51:01;;;;;;;;;;;;;;;1.73;91.37;95310.63;4994112;28;20047;-75
2021/12/09 04:53:27;;;;;;;;;;;;;;;1.73;91.06;95312.41;4993810;28;19984;-76
2021/12/09 04:55:53;;;;;;;;;;;;;;;1.72;90.81;95329.72;4994042;28;19961;-76
2021/12/09 04:58:19;;;;;;;;;;;;;;;1.69;90.85;95327.47;4993995;28;19975;-75
2021/12/09 05:00:45;;;;;;;;;;;;;;;1.68;90.92;95335.41;4994408;28;20464;-75
2021/12/09 05:03:12;;;;;;;;;;;;;;;1.69;91.03;95344.78;4992946;28;19957;-75
2021/12/09 05:05:41;;;;;;;;;;;;;;;1.67;90.95;95339.78;4986031;28;19952;-76
2021/12/09 05:08:08;;;;;;;;;;;;;;;1.67;90.82;95339.00;4993937;28;19957;-76
2021/12/09 05:10:49;;;;;;;;;;;;;;;1.66;90.92;95351.13;4994410;28;20395;-76
2021/12/09 05:13:19;;;;;;;;;;;;;;;1.65;90.80;95357.28;4993771;28;19966;-75
2021/12/09 05:15:45;;;;;;;;;;;;;;;1.64;90.70;95360.88;4976406;28;19974;-77
2021/12/09 05:18:14;;;;;;;;;;;;;;;1.64;90.77;95366.03;4994090;28;20375;-75
2021/12/09 05:20:40;;;;;;;;;;;;;;;1.66;90.93;95373.56;4976361;28;19959;-75
2021/12/09 05:23:06;;;;;;;;;;;;;;;1.65;90.81;95366.81;4993793;28;20422;-76
2021/12/09 05:25:32;;;;;;;;;;;;;;;1.67;91.03;95375.97;4994183;28;19957;-76
2021/12/09 05:27:58;;;;;;;;;;;;;;;1.67;91.01;95380.34;4993610;28;19956;-75
2021/12/09 05:30:37;;;;;;;;;;;;;;;1.66;91.16;95379.56;4993500;28;20414;-75
2021/12/09 05:33:03;;;;;;;;;;;;;;;1.66;91.01;95384.72;4993571;28;19970;-80
2021/12/09 05:35:32;;;;;;;;;;;;;;;1.67;91.16;95385.53;4993690;28;19947;-75
2021/12/09 05:37:58;;;;;;;;;;;;;;;1.68;91.28;95389.69;4993451;28;19954;-77
2021/12/09 05:40:24;;;;;;;;;;;;;;;1.66;91.40;95391.66;4993357;28;20047;-77
2021/12/09 05:42:49;;;;;;;;;;;;;;;1.66;91.33;95397.66;4997036;28;19953;-77
2021/12/09 05:45:15;;;;;;;;;;;;;;;1.67;91.34;95398.44;4997129;28;19984;-77
2021/12/09 05:47:44;;;;;;;;;;;;;;;1.67;91.30;95391.47;4997329;28;19978;-76
2021/12/09 05:50:11;;;;;;;;;;;;;;;1.66;91.27;95389.91;4963600;28;20345;-77
2021/12/09 05:52:39;;;;;;;;;;;;;;;1.65;91.15;95388.28;4996773;28;19955;-76
2021/12/09 05:55:05;;;;;;;;;;;;;;;1.65;91.15;95388.28;4997122;28;20012;-76
2021/12/09 05:57:31;;;;;;;;;;;;;;;1.64;91.38;95397.03;4996747;28;19955;-76
2021/12/09 05:59:59;;;;;;;;;;;;;;;1.63;91.36;95398.81;4979450;28;20015;-75
2021/12/09 06:02:26;;;;;;;;;;;;;;;1.65;91.41;95401.22;4996952;28;20336;-75
2021/12/09 06:04:52;;;;;;;;;;;;;;;1.63;91.46;95401.38;4996714;28;19951;-75
2021/12/09 06:07:18;;;;;;;;;;;;;;;1.64;91.49;95404.78;4996865;28;19995;-75
2021/12/09 06:09:44;;;;;;;;;;;;;;;1.66;91.27;95409.75;4996679;28;19957;-75
2021/12/09 06:12:11;;;;;;;;;;;;;;;1.62;91.12;95399.00;4996385;28;19965;-76
2021/12/09 06:14:37;;;;;;;;;;;;;;;1.61;91.35;95410.31;4996541;28;19973;-76
2021/12/09 06:17:03;;;;;;;;;;;;;;;1.62;91.14;95414.50;4996308;28;19974;-76
2021/12/09 06:19:32;;;;;;;;;;;;;;;1.61;91.21;95407.72;4996436;28;19969;-76
2021/12/09 06:21:58;;;;;;;;;;;;;;;1.60;90.98;95416.47;4996460;28;19981;-78
2021/12/09 06:24:24;;;;;;;;;;;;;;;1.60;90.99;95408.72;4996421;28;20000;-77
2021/12/09 06:26:50;;;;;;;;;;;;;;;1.58;90.96;95414.06;4996145;28;19959;-78
2021/12/09 06:29:16;;;;;;;;;;;;;;;1.58;90.96;95413.28;4996356;28;19957;-77
2021/12/09 06:31:42;;;;;;;;;;;;;;;1.57;91.00;95411.69;4996159;28;19968;-76
2021/12/09 06:34:07;;;;;;;;;;;;;;;1.57;90.90;95414.25;4996314;28;19981;-76
2021/12/09 06:36:33;;;;;;;;;;;;;;;1.57;90.86;95417.63;4996101;28;19978;-77
2021/12/09 06:38:59;;;;;;;;;;;;;;;1.56;90.82;95410.88;4996162;28;20432;-77
2021/12/09 06:41:26;;;;;;;;;;;;;;;1.57;90.84;95412.47;4996260;28;20042;-77
2021/12/09 06:43:51;;;;;;;;;;;;;;;1.56;90.87;95407.50;4995895;28;20338;-77
2021/12/09 06:46:17;;;;;;;;;;;;;;;1.54;90.82;95407.69;4995777;28;19958;-75
2021/12/09 06:48:43;;;;;;;;;;;;;;;1.54;90.69;95406.91;4995852;28;19962;-76
2021/12/09 06:51:09;;;;;;;;;;;;;;;1.51;90.74;95413.25;4995139;28;19959;-76
2021/12/09 06:53:36;;;;;;;;;;;;;;;1.51;90.62;95407.25;4995007;28;19980;-75
2021/12/09 06:56:03;;;;;;;;;;;;;;;1.49;90.56;95409.22;4978246;28;19979;-75
2021/12/09 06:58:29;;;;;;;;;;;;;;;1.49;90.61;95409.22;4978326;28;19946;-79
2021/12/09 07:00:56;;;;;;;;;;;;;;;1.47;90.76;95411.19;4995651;28;20435;-77
2021/12/09 07:03:22;;;;;;;;;;;;;;;1.47;90.81;95408.59;4995498;28;20022;-77
2021/12/09 07:05:48;;;;;;;;;;;;;;;1.47;90.83;95416.34;4995994;28;19961;-76
2021/12/09 07:08:15;;;;;;;;;;;;;;;1.46;90.51;95410.41;4995733;28;19962;-76
2021/12/09 07:10:41;;;;;;;;;;;;;;;1.45;90.61;95413.97;4995411;28;19950;-75
2021/12/09 07:13:07;;;;;;;;;;;;;;;1.45;90.65;95411.41;4995279;28;19963;-75
2021/12/09 07:15:34;;;;;;;;;;;;;;;1.44;90.53;95419.31;4995214;28;20323;-77
2021/12/09 07:18:00;;;;;;;;;;;;;;;1.44;90.52;95419.31;4995217;28;19981;-74
2021/12/09 07:20:27;;;;;;;;;;;;;;;1.42;90.53;95411.75;4995358;28;19958;-75
2021/12/09 07:22:53;;;;;;;;;;;;;;;1.41;90.32;95416.13;4995112;28;19953;-75
2021/12/09 07:25:21;;;;;;;;;;;;;;;1.40;90.18;95430.00;4995297;28;19958;-75
2021/12/09 07:27:47;;;;;;;;;;;;;;;1.41;90.36;95428.25;4995072;28;19955;-75
2021/12/09 07:30:14;;;;;;;;;;;;;;;1.40;90.46;95422.25;4995507;28;20402;-76
2021/12/09 07:32:39;;;;;;;;;;;;;;;1.40;90.68;95427.44;4994932;28;19962;-76
2021/12/09 07:35:06;;;;;;;;;;;;;;;1.41;90.92;95426.47;4994460;28;19966;-75
2021/12/09 07:37:33;;;;;;;;;;;;;;;1.43;90.99;95434.03;4995025;28;19961;-76
2021/12/09 07:39:59;;;;;;;;;;;;;;;1.44;91.28;95440.78;4994819;28;20430;-77
2021/12/09 07:42:25;;;;;;;;;;;;;;;1.47;91.30;95437.03;4994862;28;19950;-77
2021/12/09 07:44:51;;;;;;;;;;;;;;;1.47;91.33;95448.19;4994980;28;20004;-76
2021/12/09 07:47:17;;;;;;;;;;;;;;;1.48;91.55;95459.31;4994587;28;20067;-76
2021/12/09 07:49:44;;;;;;;;;;;;;;;1.49;91.74;95461.72;4977662;28;19963;-77
2021/12/09 07:52:10;;;;;;;;;;;;;;;1.50;91.50;95458.13;4994591;28;20330;-77
2021/12/09 07:54:36;;;;;;;;;;;;;;;1.52;91.50;95463.13;4994554;28;20433;-76
2021/12/09 07:57:02;;;;;;;;;;;;;;;1.54;91.71;95466.31;4994587;28;20049;-76
2021/12/09 07:59:31;;;;;;;;;;;;;;;1.56;91.59;95462.56;4994841;28;20314;-76
2021/12/09 08:01:57;;;;;;;;;;;;;;;1.59;91.51;95457.00;4994724;28;19961;-76
2021/12/09 08:04:22;;;;;;;;;;;;;;;1.61;91.40;95462.78;4993859;28;20302;-76
2021/12/09 08:06:49;;;;;;;;;;;;;;;1.63;91.71;95462.63;4994531;28;19970;-76
2021/12/09 08:09:15;;;;;;;;;;;;;;;1.66;91.54;95462.25;4994422;28;20444;-76
2021/12/09 08:11:44;;;;;;;;;;;;;;;1.69;91.54;95451.53;4994248;28;19963;-76
2021/12/09 08:14:11;;;;;;;;;;;;;;;1.70;91.30;95455.72;4994437;28;20412;-75
2021/12/09 08:16:39;;;;;;;;;;;;;;;1.71;90.80;95454.72;4994096;28;19963;-76
2021/12/09 08:19:05;;;;;;;;;;;;;;;1.68;90.40;95456.88;4994266;28;19955;-75
2021/12/09 08:21:35;;;;;;;;;;;;;;;1.63;90.18;95463.41;4994304;28;20411;-76
2021/12/09 08:24:02;;;;;;;;;;;;;;;1.61;95.57;95473.13;4976782;28;20417;-76
2021/12/09 08:26:28;;;;;;;;;;;;;;;1.77;97.67;95473.88;4976665;28;19967;-76
2021/12/09 08:28:54;;;;;;;;;;;;;;;2.41;100.00;95475.50;4992883;28;19963;-75
2021/12/09 08:31:23;;;;;;;;;;;;;;;2.58;100.00;95488.91;4994031;28;19949;-75
2021/12/09 08:33:49;;;;;;;;;;;;;;;2.57;94.79;95488.13;4994090;28;19973;-75
2021/12/09 08:36:15;;;;;;;;;;;;;;;2.53;92.78;95489.50;4993982;28;20002;-75
2021/12/09 08:38:50;;;;;;;;;;;;;;;2.49;91.96;95490.88;4994499;28;19980;-76
2021/12/09 08:41:18;;;;;;;;;;;;;;;2.43;91.42;95484.66;4994092;28;20393;-75
2021/12/09 08:43:45;;;;;;;;;;;;;;;2.40;90.95;95486.84;4994133;28;19998;-75
2021/12/09 08:46:11;;;;;;;;;;;;;;;2.36;90.70;95493.38;4994454;28;19954;-75
2021/12/09 08:48:37;;;;;;;;;;;;;;;2.30;89.49;95494.13;4993868;28;19960;-75
2021/12/09 08:51:04;;;;;;;;;;;;;;;2.19;89.68;95495.47;4993807;28;20017;-75
2021/12/09 08:53:29;;;;;;;;;;;;;;;2.14;90.38;95503.78;4993786;28;19958;-77
2021/12/09 08:55:55;;;;;;;;;;;;;;;2.09;90.20;95505.34;4994028;28;20403;-75
2021/12/09 08:58:22;;;;;;;;;;;;;;;2.06;90.67;95511.69;4994086;28;19985;-75
2021/12/09 09:00:51;;;;;;;;;;;;;;;2.10;91.15;95514.69;4976529;28;20422;-75
2021/12/09 09:03:17;;;;;;;;;;;;;;;2.13;91.50;95504.75;4994042;28;19957;-75
2021/12/09 09:05:43;;;;;;;;;;;;;;;2.15;90.39;95510.56;4993608;28;19966;-75
2021/12/09 09:08:09;;;;;;;;;;;;;;;2.18;90.52;95504.19;4993946;28;20321;-75
2021/12/09 09:10:36;;;;;;;;;;;;;;;2.19;91.03;95501.44;4976355;28;20381;-75
2021/12/09 09:13:03;;;;;;;;;;;;;;;2.19;90.89;95504.00;4994207;28;19955;-76
2021/12/09 09:15:31;;;;;;;;;;;;;;;2.22;91.02;95513.19;4972027;28;19972;-75
2021/12/09 09:17:57;;;;;;;;;;;;;;;2.26;91.65;95516.19;4997518;28;19979;-76
2021/12/09 09:20:25;;;;;;;;;;;;;;;2.26;91.75;95518.78;4997415;28;19958;-76
2021/12/09 09:22:51;;;;;;;;;;;;;;;2.27;92.06;95521.19;4995831;28;20321;-75
2021/12/09 09:25:26;;;;;;;;;;;;;;;2.30;91.46;95522.59;4997274;28;19953;-75
2021/12/09 09:27:52;;;;;;;;;;;;;;;2.32;91.22;95523.22;4997375;28;19976;-75
2021/12/09 09:30:19;;;;;;;;;;;;;;;2.32;90.96;95533.56;4997203;28;19957;-75
2021/12/09 09:32:45;;;;;;;;;;;;;;;2.29;91.20;95528.75;4997230;28;19965;-75
2021/12/09 09:35:11;;;;;;;;;;;;;;;2.34;91.56;95539.34;4996939;28;19967;-75
2021/12/09 09:37:38;;;;;;;;;;;;;;;2.38;92.30;95532.81;4980085;28;19954;-75
2021/12/09 09:40:10;;;;;;;;;;;;;;;2.38;91.33;95527.63;4996933;28;19964;-75
2021/12/09 09:45:03;;;;;;;;;;;;;;;2.44;91.18;95534.63;4996955;28;19971;-75
2021/12/09 09:47:29;;;;;;;;;;;;;;;2.42;91.17;95541.78;4979418;28;19955;-75
2021/12/09 09:49:55;;;;;;;;;;;;;;;2.40;92.03;95538.59;4997230;28;19972;-76
2021/12/09 09:52:22;;;;;;;;;;;;;;;2.42;92.15;95534.03;4997176;28;19958;-75
2021/12/09 09:54:48;;;;;;;;;;;;;;;2.47;92.67;95538.63;4996726;28;19985;-75
2021/12/09 09:57:14;;;;;;;;;;;;;;;2.50;92.27;95541.66;4996894;28;19959;-75
2021/12/09 09:59:41;;;;;;;;;;;;;;;2.54;92.47;95537.69;4996830;28;20329;-75
2021/12/09 10:02:09;;;;;;;;;;;;;;;2.58;91.89;95540.69;4979092;28;19951;-75
2021/12/09 10:07:07;;;;;;;;;;;;;;;2.66;91.66;95550.09;4996747;28;19962;-75
2021/12/09 10:09:34;;;;;;;;;;;;;;;2.69;91.63;95553.09;4996641;28;19962;-75
2021/12/09 10:12:01;;;;;;;;;;;;;;;2.77;92.57;95552.97;4996380;28;20318;-75
2021/12/09 10:14:29;;;;;;;;;;;;;;;2.84;92.32;95547.81;4996276;28;19980;-75
2021/12/09 10:17:01;;;;;;;;;;;;;;;2.93;93.66;95546.66;4995832;28;19960;-75
2021/12/09 10:19:27;;;;;;;;;;;;;;;2.99;91.44;95552.88;4996248;28;19953;-76
2021/12/09 10:22:04;;;;;;;;;;;;;;;3.02;92.02;95547.28;4996673;28;19956;-75
2021/12/09 10:24:33;;;;;;;;;;;;;;;3.01;90.51;95549.09;4986568;28;20406;-75
2021/12/09 10:26:59;;;;;;;;;;;;;;;2.97;90.59;95550.47;4995325;28;19957;-75
2021/12/09 10:29:31;;;;;;;;;;;;;;;2.98;90.50;95557.25;4995916;28;19957;-75
2021/12/09 10:32:00;;;;;;;;;;;;;;;2.99;91.16;95555.47;4996286;28;19958;-75
2021/12/09 10:37:00;;;;;;;;;;;;;;;2.97;91.15;95550.47;4996178;28;19974;-75
2021/12/09 10:39:29;;;;;;;;;;;;;;;2.98;90.77;95552.06;4995900;28;20316;-75
2021/12/09 10:41:56;;;;;;;;;;;;;;;3.00;90.81;95560.44;4995755;28;19964;-75
2021/12/09 10:44:32;;;;;;;;;;;;;;;3.04;91.80;95550.47;4996363;28;19955;-75
2021/12/09 10:47:11;;;;;;;;;;;;;;;3.08;91.33;95551.69;4987828;28;19956;-76
2021/12/09 10:50:16;;;;;;;;;;;;;;;3.13;90.84;95545.94;4996005;28;20332;-76
2021/12/09 10:52:44;;;;;;;;;;;;;;;3.20;90.78;95546.78;4978598;28;19961;-76
2021/12/09 10:55:18;;;;;;;;;;;;;;;3.25;91.18;95547.81;4995056;28;19978;-75
2021/12/09 10:57:51;;;;;;;;;;;;;;;3.28;90.12;95543.22;4995563;28;19976;-75
2021/12/09 11:00:17;;;;;;;;;;;;;;;3.29;90.51;95539.63;4978155;28;20365;-75
2021/12/09 11:02:57;;;;;;;;;;;;;;;3.29;90.38;95543.00;4995630;28;19952;-75
2021/12/09 11:05:23;;;;;;;;;;;;;;;3.30;91.00;95543.81;4995313;28;19954;-75
2021/12/09 11:07:49;;;;;;;;;;;;;;;3.38;98.60;95535.88;4995526;28;19962;-76
2021/12/09 11:10:15;;;;;;;;;;;;;;;4.02;100.00;95539.78;4995501;28;19961;-75
2021/12/09 11:12:50;;;;;;;;;;;;;;;4.22;91.74;95526.78;4995146;28;19957;-76
2021/12/09 11:15:17;;;;;;;;;;;;;;;4.17;89.23;95529.22;4978076;28;20334;-76
2021/12/09 11:17:46;;;;;;;;;;;;;;;4.09;88.46;95532.00;4995308;28;19984;-75
2021/12/09 11:20:13;;;;;;;;;;;;;;;4.06;88.12;95528.81;4995133;28;19962;-75
2021/12/09 11:22:42;;;;;;;;;;;;;;;4.11;87.07;95527.41;4977722;28;19959;-76
2021/12/09 11:25:32;;;;;;;;;;;;;;;4.02;86.86;95525.00;4995073;28;19956;-76
2021/12/09 11:28:11;;;;;;;;;;;;;;;4.00;86.20;95519.22;4985861;28;19953;-76
2021/12/09 11:30:59;;;;;;;;;;;;;;;4.05;86.20;95518.63;4977570;28;19955;-75
2021/12/09 11:33:34;;;;;;;;;;;;;;;4.15;85.54;95519.03;4994068;28;20042;-75
2021/12/09 11:36:02;;;;;;;;;;;;;;;4.31;85.74;95517.81;4994102;28;20407;-75
2021/12/09 11:38:54;;;;;;;;;;;;;;;4.29;84.03;95519.03;4994865;28;19954;-75
2021/12/09 11:41:31;;;;;;;;;;;;;;;4.27;84.19;95511.44;4994757;28;20372;-76
2021/12/09 11:43:56;;;;;;;;;;;;;;;4.20;83.64;95526.19;4994915;28;19962;-76
2021/12/09 11:46:22;;;;;;;;;;;;;;;4.20;84.32;95518.41;4994586;28;19961;-76
2021/12/09 11:48:48;;;;;;;;;;;;;;;4.19;82.68;95517.63;4994829;28;20003;-76
2021/12/09 11:51:14;;;;;;;;;;;;;;;4.20;83.79;95531.38;4994619;28;19955;-76
2021/12/09 11:53:43;;;;;;;;;;;;;;;4.19;84.51;95517.63;4994483;28;20417;-76
2021/12/09 11:56:24;;;;;;;;;;;;;;;4.12;84.48;95518.63;4994626;28;19981;-75
2021/12/09 12:07:32;;;;;;;;;;;;;;;4.15;85.40;95500.84;4994924;28;19959;-75
2021/12/09 12:15:26;;;;;;;;;;;;;;;4.21;83.84;95499.25;4994325;28;19964;-75
2021/12/09 12:20:52;;;;;;;;;;;;;;;4.39;83.73;95496.84;4994675;28;20412;-75
2021/12/09 12:23:37;;;;;;;;;;;;;;;4.43;83.65;95499.81;4994360;28;19966;-75
2021/12/09 12:29:09;;;;;;;;;;;;;;;4.44;83.02;95491.06;4994167;28;20017;-76
2021/12/09 12:34:55;;;;;;;;;;;;;;;4.41;82.67;95496.63;4985155;28;19954;-75
2021/12/09 12:40:13;;;;;;;;;;;;;;;4.34;82.98;95503.63;4994059;28;20333;-75
2021/12/09 12:42:55;;;;;;;;;;;;;;;4.30;82.60;95497.25;4994076;28;19953;-75
2021/12/09 12:45:46;;;;;;;;;;;;;;;4.26;82.81;95497.66;4979859;28;19947;-75
2021/12/09 12:48:43;;;;;;;;;;;;;;;4.24;82.08;95504.03;4994051;28;19964;-75
2021/12/09 12:51:21;;;;;;;;;;;;;;;4.23;81.60;95492.06;4995401;28;19958;-75
2021/12/09 12:53:49;;;;;;;;;;;;;;;4.19;81.78;95491.66;4998100;28;19959;-75
2021/12/09 12:56:20;;;;;;;;;;;;;;;4.19;82.81;95501.25;4997901;28;20467;-75
2021/12/09 12:59:04;;;;;;;;;;;;;;;4.18;83.43;95503.06;4997834;28;20325;-76
2021/12/09 13:01:31;;;;;;;;;;;;;;;4.12;82.25;95496.06;4997765;28;19956;-75
2021/12/09 13:04:05;;;;;;;;;;;;;;;4.05;82.73;95497.84;4997437;28;20019;-75
2021/12/09 13:06:48;;;;;;;;;;;;;;;3.97;81.14;95500.66;4998143;28;20318;-75
2021/12/09 13:09:32;;;;;;;;;;;;;;;3.92;80.32;95492.69;4980469;28;20419;-76
2021/12/09 13:12:06;;;;;;;;;;;;;;;3.94;82.01;95491.47;4997550;28;20422;-76
2021/12/09 13:14:37;;;;;;;;;;;;;;;3.95;81.19;95492.28;4997817;28;19967;-75
2021/12/09 13:17:09;;;;;;;;;;;;;;;3.93;80.66;95492.50;4997283;28;19983;-75
2021/12/09 13:19:47;;;;;;;;;;;;;;;3.89;81.41;95483.50;4981039;28;19968;-75
2021/12/09 13:22:13;;;;;;;;;;;;;;;3.82;79.93;95477.50;4997283;28;19960;-75
2021/12/09 13:25:02;;;;;;;;;;;;;;;3.78;79.26;95479.72;4997327;28;19956;-75
2021/12/09 13:32:56;;;;;;;;;;;;;;;3.71;80.53;95489.28;4997087;28;19948;-75
2021/12/09 13:49:35;;;;;;;;;;;;;;;3.69;81.00;95490.47;4997237;28;19968;-75
2021/12/09 13:54:03;;;;;;;;;;;;;;;3.70;81.13;95492.09;4997330;28;20302;-75
2021/12/09 13:54:53;;;;;;;;;;;;;;;3.74;81.47;95498.44;4981457;28;19966;-75
2021/12/09 13:57:27;;;;;;;;;;;;;;;3.80;81.85;95508.03;4996832;28;20372;-75
2021/12/09 13:59:53;;;;;;;;;;;;;;;3.84;81.81;95514.41;4983581;28;19948;-75